Bucks, AL (36512)

4:00 PM CDT on April 25, 2015 (GMT -0500)
York Hill Gulfcrest, Alabama | | Change Station
CLOSE
Current Station
Personal Weather Station
Location: Chunchula, AL
Elevation: 190 ft
Nearby Weather Stations

Elev 190 ft 30.99 °N, 88.24 °W | Updated 6 minutes ago

Thunderstorm
Thunderstorm
69.1 °F
Feels Like 69.1 °F
N
0.0
Wind Variable Wind from SSE

Today
High -- | Low -- °F
--% Chance of Precip.
Yesterday
High -- | Low -- °F
Precip. -- in
6:13 AM 7:27 PM
Waxing Crescent, 49% visible
Pressure 29.82 in
Visibility 7.0 miles
Clouds Few 1500 ft
Mostly Cloudy 3300 ft
Overcast 6000 ft
Dew Point 67 °F
Humidity 92%
Rainfall 0.87 in
Snow Depth Not available.
UV 2 out of 12
Pollen 5.20 out of 12
Air Quality Not available.
Flu Activity No Activity
METAR KMOB 252056Z 30007G16KT 7SM -RA FEW015 BKN033 OVC060 21/21 A2983 RMK AO2 PK WND 30042/2004 LTG DSNT N-SE TSB07E29 SLP097 P0035 60066 T02060206 50019

More Conditions Fewer Conditions

Pressure 29.82 in
Visibility 7.0 miles
Clouds Few 1500 ft
Mostly Cloudy 3300 ft
Overcast 6000 ft
Dew Point 67 °F
Humidity 92%
Rainfall 0.87 in
Snow Depth Not available.
UV 2 out of 12
Pollen 5.20 out of 12
Air Quality Not available.
Flu Activity No Activity
METAR KMOB 252056Z 30007G16KT 7SM -RA FEW015 BKN033 OVC060 21/21 A2983 RMK AO2 PK WND 30042/2004 LTG DSNT N-SE TSB07E29 SLP097 P0035 60066 T02060206 50019

More Conditions Fewer Conditions

10-Day Weather Forecast

Almanac

Astronomy

Apr. 25, 2015 Rise Set
Actual Time
Civil Twilight
Nautical Twilight
Astronomical Twilight
Moon
Length of Visible Light
Length of Day
Tomorrow will be .
, % of the Moon is Illuminated

Today's Extremes

State Highs State Lows

Community

WunderPhotos

Upload Photos

1,816,808 photos uploaded!

WunderBlogs® & News

Nearby

Air Quality

  Air Quality AQ Index Pollutant
Not available.

Snow Depth

Station Depth Elevation

Earthquake Activity

City Distance Mag. Time & Date
Minimum magnitude displayed is 2.5.

Coastal Water Temperatures

Place Temperature

Stations

Nearby Weather Stations

Station Location Temp. Windchill Dew Point Humidity Wind Precip. Elev Updated Type